Tropical Cyclones
[Index]
Main Index Home Page Stock Weather Photos Extreme Storms Discussion Storm News and Storm Chasing Reports Tropical Cyclones / Hurricanes / Typhoons Weather Data and Links Wild Fires / Bushfires Weather Observation Techniques Weather Picture Catalogue Tornado Pictures and Reports Stock Video Footage and DVDs for sale
Season 1971-1972 Tropical Cyclone AGNES Track Map
Season 1971-1972 Summaries: [BoM-AU] [JTWC-AU] [JTWC-SIO] [JTWC-SPAC] [JTWC-SH]
<<- Previous TC | JTWC 1971-1972 Season | Next TC ->>

click for intensity scale information  Lat/long Grid: Show Hide

 Date Labels: Show Hide

Joint Typhoon Warning Centre Cyclone Data

Name: AGNES
Number: 778 / 7207

10 Dec 1971 06:00 UTC to 23 Dec 1971 18:00 UTC

    date/time    lat    long     hPa   cat  kts
1971-12-10 06   10.9    80.8                              
1971-12-10 12   10.8    79.4                              
1971-12-10 18   10.7    78.0                              
1971-12-11 00   10.5    76.6                              
1971-12-11 06   10.3    75.4                              
1971-12-11 12   10.3    74.5                              
1971-12-11 18   10.2    73.8                              
1971-12-12 00   10.1    72.8                              
1971-12-12 06   10.1    71.9                              
1971-12-12 12   10.1    71.4                              
1971-12-12 18   10.1    70.8                              
1971-12-13 00   10.1    70.3                              
1971-12-13 06   10.1    69.7                              
1971-12-13 12   10.2    68.6                              
1971-12-13 18   10.4    67.3                              
1971-12-14 00   10.6    66.2                              
1971-12-14 06   10.7    65.2                              
1971-12-14 12   10.8    64.2                              
1971-12-14 18   10.9    63.2                              
1971-12-15 00   11.0    62.3                              
1971-12-15 06   11.1    61.3                              
1971-12-15 12   11.3    60.0                              
1971-12-15 18   11.5    58.5                              
1971-12-16 00   11.7    57.2                              
1971-12-16 06   11.8    56.0                              
1971-12-16 12   11.9    54.8                              
1971-12-16 18   12.0    53.6                              
1971-12-17 00   11.9    52.3                              
1971-12-17 06   12.0    51.0                              
1971-12-17 12   12.4    49.7                              
1971-12-17 18   12.9    48.3                              
1971-12-18 00   13.3    47.0                              
1971-12-18 06   13.7    46.0                              
1971-12-18 12   14.1    45.3                              
1971-12-18 18   14.6    44.7                              
1971-12-19 00   15.0    43.8                              
1971-12-19 06   15.5    43.0                              
1971-12-19 12   15.8    42.7                              
1971-12-19 18   16.0    42.5                              
1971-12-20 00   16.3    42.2                              
1971-12-20 06   16.7    41.9                              
1971-12-20 12   17.4    41.2                              
1971-12-20 18   18.2    40.4                              
1971-12-21 00   19.0    39.8                              
1971-12-21 06   19.8    39.6                              
1971-12-21 12   20.2    39.8                              
1971-12-21 18   20.5    40.2                              
1971-12-22 00   20.8    40.7                              
1971-12-22 06   21.0    41.0                              
1971-12-22 12   21.0    41.1                              
1971-12-22 18   21.1    41.3                              
1971-12-23 00   21.1    41.4                              
1971-12-23 06   21.2    41.6                              
1971-12-23 12   21.2    41.9                              
1971-12-23 18   21.3    42.3                              
Winds are 1-min average.

Tropical cyclone tracks developed by Michael Bath using data from the Joint Typhoon Warning Centre Best Tracks and Google Maps.


[Australian Severe Weather index] [Copyright Notice] [Email Contacts] [Search This Site] [Privacy Policy]
Document: tropical_cyclone_agnes.htm Updated: 18 September 2016